Time;durP1;ratioP1;P1;durP2;ratioP2;P2;SDS_P1;SDS_P2;PMS_P1;PMS_P2;Temp;Humidity;BMP_temperature;BMP_pressure;BME280_temperature;BME280_humidity;BME280_pressure;Samples;Min_cycle;Max_cycle;Signal;HPM_P1;HPM_P2
2023/01/28 00:00:36;;;;;;;8.10;4.82;;;7.70;60.90;;;;;;6245307;23;20311;-79
2023/01/28 00:03:02;;;;;;;6.57;4.28;;;7.70;60.20;;;;;;6245890;23;20034;-80
2023/01/28 00:05:28;;;;;;;8.00;5.00;;;7.70;60.40;;;;;;6218166;23;20091;-80
2023/01/28 00:07:55;;;;;;;9.20;4.97;;;7.70;60.20;;;;;;6218877;23;20008;-80
2023/01/28 00:10:20;;;;;;;9.02;5.22;;;7.70;59.80;;;;;;6244634;23;20004;-79
2023/01/28 00:12:46;;;;;;;9.95;5.30;;;7.70;60.20;;;;;;6245927;23;20075;-79
2023/01/28 00:15:11;;;;;;;8.85;5.15;;;7.80;60.10;;;;;;6243461;23;20050;-81
2023/01/28 00:17:37;;;;;;;7.95;5.03;;;7.80;60.10;;;;;;6245873;23;20000;-80
2023/01/28 00:20:04;;;;;;;8.13;4.88;;;7.80;60.00;;;;;;6245329;23;20036;-80
2023/01/28 00:22:31;;;;;;;8.57;4.90;;;7.80;59.80;;;;;;6246727;23;20422;-80
2023/01/28 00:24:57;;;;;;;7.30;4.47;;;7.80;59.90;;;;;;6245649;23;20004;-80
2023/01/28 00:27:23;;;;;;;8.55;4.82;;;7.80;60.00;;;;;;6246519;23;20000;-80
2023/01/28 00:29:49;;;;;;;10.18;5.15;;;7.80;60.20;;;;;;6246054;23;20000;-81
2023/01/28 00:32:14;;;;;;;9.02;4.72;;;7.80;60.20;;;;;;6247126;23;20354;-80
2023/01/28 00:34:40;;;;;;;6.00;4.25;;;7.90;60.00;;;;;;6246577;23;20082;-80
2023/01/28 00:37:06;;;;;;;5.80;4.43;;;7.90;59.90;;;;;;6246547;23;20440;-81
2023/01/28 00:39:34;;;;;;;6.10;4.18;;;7.90;59.20;;;;;;6246188;23;20008;-80
2023/01/28 00:42:00;;;;;;;10.25;4.88;;;7.90;59.60;;;;;;6246686;23;20000;-80
2023/01/28 00:44:26;;;;;;;8.32;4.45;;;8.00;59.50;;;;;;6219099;23;20061;-80
2023/01/28 00:46:52;;;;;;;7.43;4.65;;;7.90;59.40;;;;;;6245371;23;20322;-80
2023/01/28 00:49:17;;;;;;;11.15;5.60;;;8.00;59.40;;;;;;6244622;23;20010;-80
2023/01/28 00:51:43;;;;;;;7.10;4.90;;;7.90;59.50;;;;;;6245038;23;20055;-80
2023/01/28 00:54:11;;;;;;;7.68;4.60;;;7.90;59.50;;;;;;6244318;23;20001;-81
2023/01/28 00:56:37;;;;;;;7.93;5.32;;;7.90;59.50;;;;;;6245068;23;20004;-81
2023/01/28 00:59:03;;;;;;;7.18;5.07;;;7.90;59.30;;;;;;6244343;23;20026;-81
2023/01/28 01:01:29;;;;;;;7.32;4.72;;;7.90;58.90;;;;;;6244775;23;20649;-80
2023/01/28 01:04:01;;;;;;;9.75;5.65;;;8.00;59.10;;;;;;6244178;23;20027;-80
2023/01/28 01:06:31;;;;;;;11.18;6.07;;;8.00;59.10;;;;;;6245081;23;20666;-80
2023/01/28 01:08:57;;;;;;;7.38;4.90;;;7.90;58.90;;;;;;6243811;23;20008;-80
2023/01/28 01:11:23;;;;;;;7.95;5.13;;;7.90;59.10;;;;;;6245788;23;20000;-81
2023/01/28 01:13:55;;;;;;;7.57;5.00;;;7.90;59.70;;;;;;6246238;23;20014;-80
2023/01/28 01:16:23;;;;;;;8.15;5.28;;;7.90;59.30;;;;;;6245808;23;20050;-80
2023/01/28 01:18:53;;;;;;;8.82;5.22;;;7.80;59.30;;;;;;6245945;23;20010;-80
2023/01/28 01:21:21;;;;;;;10.50;6.25;;;7.80;59.60;;;;;;6246393;23;20007;-80
2023/01/28 01:23:46;;;;;;;7.43;5.40;;;7.70;59.50;;;;;;6245885;23;20422;-81
2023/01/28 01:26:13;;;;;;;8.95;5.60;;;7.60;59.70;;;;;;6219737;23;20012;-81
2023/01/28 01:28:39;;;;;;;9.82;5.80;;;7.60;59.80;;;;;;6246035;23;20000;-81
2023/01/28 01:31:07;;;;;;;9.80;5.90;;;7.60;59.30;;;;;;6246584;23;20014;-81
2023/01/28 01:33:33;;;;;;;8.98;6.07;;;7.50;59.80;;;;;;6246261;23;20373;-81
2023/01/28 01:35:59;;;;;;;8.05;5.57;;;7.50;59.60;;;;;;6245845;23;19996;-80
2023/01/28 01:38:26;;;;;;;9.30;5.70;;;7.40;59.40;;;;;;6245775;23;20007;-80
2023/01/28 01:40:55;;;;;;;12.27;6.68;;;7.40;60.10;;;;;;6218903;23;20307;-80
2023/01/28 01:43:21;;;;;;;10.88;6.57;;;7.30;60.30;;;;;;6246303;23;20093;-80
2023/01/28 01:45:59;;;;;;;9.32;6.05;;;7.30;60.30;;;;;;6245798;23;20058;-79
2023/01/28 01:48:32;;;;;;;11.07;6.30;;;7.30;60.50;;;;;;6246333;23;20050;-80
2023/01/28 01:51:04;;;;;;;9.98;6.13;;;7.30;60.40;;;;;;6245790;23;20016;-80
2023/01/28 01:53:31;;;;;;;10.20;6.10;;;7.30;60.30;;;;;;6245896;23;20027;-80
2023/01/28 01:56:00;;;;;;;11.75;6.15;;;7.30;60.20;;;;;;6218833;23;20083;-80
2023/01/28 01:58:29;;;;;;;8.77;5.87;;;7.30;60.20;;;;;;6246439;23;20031;-80
2023/01/28 02:00:56;;;;;;;8.70;5.78;;;7.30;60.60;;;;;;6245691;23;20223;-80
2023/01/28 02:03:31;;;;;;;11.48;7.03;;;7.30;60.40;;;;;;6245770;23;20030;-80
2023/01/28 02:05:57;;;;;;;8.20;5.78;;;7.30;59.90;;;;;;6245716;23;20307;-80
2023/01/28 02:08:24;;;;;;;10.27;6.53;;;7.30;60.30;;;;;;6244190;23;20039;-80
2023/01/28 02:10:55;;;;;;;9.20;5.90;;;7.20;60.10;;;;;;6245661;23;20008;-79
2023/01/28 02:13:26;;;;;;;10.95;6.13;;;7.20;60.40;;;;;;6244965;23;20000;-79
2023/01/28 02:15:52;;;;;;;10.73;6.47;;;7.20;60.50;;;;;;6244072;23;20004;-80
2023/01/28 02:18:18;;;;;;;8.68;5.65;;;7.20;60.60;;;;;;6243871;23;20004;-81
2023/01/28 02:20:54;;;;;;;9.40;6.32;;;7.20;60.70;;;;;;6243965;23;20042;-81
2023/01/28 02:23:35;;;;;;;11.13;6.07;;;7.20;60.90;;;;;;6243679;23;20005;-81
2023/01/28 02:26:15;;;;;;;9.13;5.28;;;7.10;60.90;;;;;;6217532;23;20055;-81
2023/01/28 02:29:09;;;;;;;9.18;5.55;;;7.00;61.00;;;;;;6244505;23;20004;-80
2023/01/28 02:31:43;;;;;;;6.95;4.80;;;7.00;60.70;;;;;;6243805;23;19996;-81
2023/01/28 02:34:21;;;;;;;8.77;5.80;;;7.00;60.70;;;;;;6244168;23;20007;-80
2023/01/28 02:37:13;;;;;;;12.45;6.78;;;7.00;61.10;;;;;;6243852;23;19996;-81
2023/01/28 02:39:44;;;;;;;9.88;6.40;;;7.00;61.20;;;;;;6243218;23;20039;-81
2023/01/28 02:42:27;;;;;;;7.93;5.53;;;6.80;61.20;;;;;;6243052;23;20035;-80
2023/01/28 02:44:53;;;;;;;8.32;5.28;;;6.80;61.40;;;;;;6244057;23;20022;-79
2023/01/28 02:50:14;;;;;;;9.77;6.10;;;6.80;61.60;;;;;;6243671;23;20015;-80
2023/01/28 02:56:00;;;;;;;9.07;5.75;;;6.80;61.70;;;;;;6243952;23;20015;-79
2023/01/28 02:58:50;;;;;;;8.70;5.47;;;6.90;61.80;;;;;;6244330;23;20075;-79
2023/01/28 03:01:16;;;;;;;10.27;5.63;;;6.90;61.70;;;;;;6245480;23;20019;-80
2023/01/28 03:04:00;;;;;;;9.38;5.82;;;6.90;61.10;;;;;;6245562;23;20066;-80
2023/01/28 03:06:34;;;;;;;7.95;5.22;;;6.90;61.50;;;;;;6243404;23;20075;-80
2023/01/28 03:09:21;;;;;;;8.77;5.70;;;6.90;61.40;;;;;;6244768;23;20009;-79
2023/01/28 03:37:52;;;;;;;9.63;5.70;;;6.90;60.80;;;;;;6246623;23;20096;-76
2023/01/28 03:40:18;;;;;;;8.48;5.85;;;6.90;61.30;;;;;;6247026;23;20036;-76
2023/01/28 03:42:43;;;;;;;8.70;5.82;;;6.90;61.20;;;;;;6247191;23;20055;-76
2023/01/28 03:45:09;;;;;;;10.63;5.38;;;6.90;61.20;;;;;;6247581;23;20306;-76
2023/01/28 03:47:36;;;;;;;10.35;6.03;;;6.90;61.10;;;;;;6246816;23;20000;-76
2023/01/28 03:50:01;;;;;;;9.05;5.68;;;6.90;61.10;;;;;;6247511;23;20011;-76
2023/01/28 03:52:32;;;;;;;10.30;6.00;;;7.00;61.30;;;;;;6246888;23;20020;-76
2023/01/28 03:54:58;;;;;;;;;;;7.00;60.70;;;;;;6247983;23;19996;-77
2023/01/28 03:57:25;;;;;;;10.00;6.20;;;7.00;61.10;;;;;;6246896;23;19908;-77
2023/01/28 03:59:51;;;;;;;10.55;6.85;;;7.00;61.10;;;;;;6246765;23;20054;-76
2023/01/28 04:02:19;;;;;;;10.75;6.43;;;7.00;60.60;;;;;;6246891;23;20298;-76
2023/01/28 04:04:45;;;;;;;10.73;6.63;;;7.00;60.70;;;;;;6247229;23;20386;-77
2023/01/28 04:07:14;;;;;;;9.98;6.57;;;7.00;60.80;;;;;;6246651;23;20004;-77
2023/01/28 04:09:40;;;;;;;9.32;5.90;;;7.00;60.80;;;;;;6246486;23;20480;-77
2023/01/28 04:12:06;;;;;;;10.07;6.55;;;7.00;60.70;;;;;;6246632;23;19997;-76
2023/01/28 04:14:32;;;;;;;10.43;6.43;;;6.90;60.60;;;;;;6245953;23;20008;-78
2023/01/28 04:16:58;;;;;;;12.45;7.30;;;7.00;61.00;;;;;;6244250;23;20004;-78
2023/01/28 04:19:24;;;;;;;10.88;6.65;;;7.00;60.90;;;;;;6245050;23;19997;-78
2023/01/28 04:21:52;;;;;;;9.80;6.20;;;7.00;60.90;;;;;;6244862;23;20452;-78
2023/01/28 04:24:19;;;;;;;9.25;6.03;;;7.00;60.80;;;;;;6245707;23;20004;-78
2023/01/28 04:26:44;;;;;;;10.52;6.45;;;7.00;60.80;;;;;;6244696;23;20390;-79
2023/01/28 04:29:10;;;;;;;10.20;6.72;;;7.00;60.90;;;;;;6245558;23;20007;-78
2023/01/28 04:31:36;;;;;;;10.88;6.85;;;7.00;60.30;;;;;;6244874;23;20054;-79
2023/01/28 04:34:01;;;;;;;12.45;7.03;;;7.00;60.70;;;;;;6245269;23;20407;-79
2023/01/28 04:36:27;;;;;;;9.70;6.30;;;7.00;60.70;;;;;;6244230;23;20027;-80
2023/01/28 04:38:53;;;;;;;10.02;6.30;;;7.00;60.90;;;;;;6244352;23;20022;-80
2023/01/28 04:41:19;;;;;;;10.20;6.78;;;6.90;61.10;;;;;;6217719;23;20337;-79
2023/01/28 04:43:45;;;;;;;10.38;6.32;;;6.90;61.20;;;;;;6245394;23;20586;-80
2023/01/28 04:46:10;;;;;;;10.90;6.55;;;6.90;61.40;;;;;;6217377;23;20011;-80
2023/01/28 04:48:37;;;;;;;9.48;6.15;;;6.70;61.30;;;;;;6245598;23;19996;-80
2023/01/28 04:51:03;;;;;;;11.82;6.78;;;6.70;61.70;;;;;;6245850;23;20039;-79
2023/01/28 04:53:29;;;;;;;12.25;7.45;;;6.70;61.30;;;;;;6219827;23;20338;-79
2023/01/28 04:55:56;;;;;;;12.25;7.07;;;6.70;61.40;;;;;;6246132;23;19996;-79
2023/01/28 04:58:22;;;;;;;11.60;7.13;;;6.70;61.80;;;;;;6246365;23;20422;-79
2023/01/28 05:00:56;;;;;;;11.13;6.97;;;6.70;62.00;;;;;;6246430;23;20007;-79
2023/01/28 05:03:23;;;;;;;11.00;6.95;;;6.60;61.80;;;;;;6246922;23;20008;-78
2023/01/28 05:05:49;;;;;;;11.50;7.28;;;6.60;62.20;;;;;;6245816;23;20263;-78
2023/01/28 05:08:15;;;;;;;9.90;6.22;;;6.60;62.40;;;;;;6245482;23;20003;-78
2023/01/28 05:10:41;;;;;;;10.40;6.82;;;6.50;62.10;;;;;;6245633;23;20550;-78
2023/01/28 05:13:07;;;;;;;10.65;7.15;;;6.60;62.50;;;;;;6246625;23;20071;-78
2023/01/28 05:15:32;;;;;;;11.55;6.80;;;6.50;62.70;;;;;;6245873;23;20403;-78
2023/01/28 05:17:58;;;;;;;9.85;7.20;;;6.50;62.90;;;;;;6245901;23;20000;-78
2023/01/28 05:20:25;;;;;;;12.18;7.38;;;6.50;62.60;;;;;;6246096;23;20034;-78
2023/01/28 05:22:50;;;;;;;11.40;7.30;;;6.50;63.00;;;;;;6245600;23;20007;-79
2023/01/28 05:25:16;;;;;;;12.43;8.48;;;6.50;63.10;;;;;;6245720;23;20005;-79
2023/01/28 05:27:42;;;;;;;13.23;7.47;;;6.40;62.80;;;;;;6245886;23;20422;-78
2023/01/28 05:30:08;;;;;;;10.95;6.93;;;6.40;63.20;;;;;;6245733;23;20003;-79
2023/01/28 05:32:34;;;;;;;12.13;8.00;;;6.50;63.20;;;;;;6245689;23;20088;-79
2023/01/28 05:35:00;;;;;;;13.57;7.43;;;6.40;62.80;;;;;;6245330;23;20039;-81
2023/01/28 05:37:25;;;;;;;13.07;7.47;;;6.50;63.40;;;;;;6244502;23;20017;-80
2023/01/28 05:39:51;;;;;;;12.32;7.00;;;6.50;63.50;;;;;;6245669;23;20079;-79
2023/01/28 05:42:19;;;;;;;12.95;8.00;;;6.50;63.50;;;;;;6246069;23;20075;-80
2023/01/28 05:44:45;;;;;;;11.30;7.47;;;6.50;63.60;;;;;;6245513;23;20012;-80
2023/01/28 05:47:11;;;;;;;11.80;7.03;;;6.50;63.80;;;;;;6245310;23;20334;-80
2023/01/28 05:49:36;;;;;;;11.60;7.75;;;6.50;63.70;;;;;;6218251;23;20058;-80
2023/01/28 05:52:02;;;;;;;12.98;7.55;;;6.50;63.60;;;;;;6245640;23;20453;-79
2023/01/28 05:54:29;;;;;;;11.30;7.95;;;6.40;63.70;;;;;;6245676;23;20054;-79
2023/01/28 05:56:55;;;;;;;12.38;6.55;;;6.50;63.60;;;;;;6245021;23;19988;-79
2023/01/28 05:59:20;;;;;;;12.23;6.90;;;6.50;63.50;;;;;;6245997;23;20012;-80
2023/01/28 06:01:46;;;;;;;14.82;7.25;;;6.50;63.70;;;;;;6245704;23;20099;-80
2023/01/28 06:04:12;;;;;;;10.80;7.05;;;6.40;63.20;;;;;;6245534;23;20004;-80
2023/01/28 06:06:37;;;;;;;12.20;6.70;;;6.50;63.70;;;;;;6245143;23;20019;-80
2023/01/28 06:09:03;;;;;;;11.63;6.78;;;6.50;63.80;;;;;;6217579;23;20032;-80
2023/01/28 06:11:29;;;;;;;10.13;6.30;;;6.40;64.20;;;;;;6218846;23;20127;-79
2023/01/28 06:13:55;;;;;;;9.32;5.95;;;6.40;63.60;;;;;;6245472;23;20319;-79
2023/01/28 06:16:20;;;;;;;10.85;6.72;;;6.40;63.50;;;;;;6245697;23;20095;-80
2023/01/28 06:18:46;;;;;;;8.82;5.97;;;6.40;63.60;;;;;;6245307;23;19997;-80
2023/01/28 06:21:12;;;;;;;8.73;5.63;;;6.40;63.20;;;;;;6245437;23;20369;-79
2023/01/28 06:23:37;;;;;;;10.00;5.85;;;6.40;63.70;;;;;;6245609;23;20087;-79
2023/01/28 06:26:03;;;;;;;10.30;6.10;;;6.40;63.70;;;;;;6244854;23;20000;-86
2023/01/28 06:28:29;;;;;;;10.18;6.78;;;6.30;64.10;;;;;;6245047;23;20311;-86
2023/01/28 06:30:55;;;;;;;10.77;7.03;;;6.30;63.60;;;;;;6244891;23;20038;-84
2023/01/28 06:33:21;;;;;;;12.80;6.57;;;6.30;63.70;;;;;;6218942;23;20008;-84
2023/01/28 06:35:47;;;;;;;10.93;6.53;;;6.30;63.80;;;;;;6245748;23;20083;-85
2023/01/28 06:38:13;;;;;;;10.38;7.00;;;6.30;63.80;;;;;;6245105;23;20365;-79
2023/01/28 06:40:38;;;;;;;10.73;6.47;;;6.30;64.20;;;;;;6245442;23;20032;-79
2023/01/28 06:43:05;;;;;;;12.50;6.63;;;6.30;64.00;;;;;;6245331;23;20015;-79
2023/01/28 06:45:32;;;;;;;9.27;6.50;;;6.30;63.90;;;;;;6245574;23;20106;-79
2023/01/28 06:47:58;;;;;;;11.02;6.57;;;6.40;64.00;;;;;;6244842;23;20015;-79
2023/01/28 06:50:24;;;;;;;10.07;6.63;;;6.30;63.80;;;;;;6244808;23;20015;-79
2023/01/28 06:52:49;;;;;;;12.15;7.50;;;6.30;63.70;;;;;;6245643;23;20016;-79
2023/01/28 06:55:15;;;;;;;10.63;7.18;;;6.40;63.90;;;;;;6245217;23;20001;-78
2023/01/28 06:57:44;;;;;;;11.95;6.47;;;6.40;64.20;;;;;;6245120;23;20000;-77
2023/01/28 07:00:15;;;;;;;10.55;6.13;;;6.40;64.10;;;;;;6243128;23;20012;-77
2023/01/28 07:02:41;;;;;;;11.68;6.18;;;6.50;63.50;;;;;;6244061;23;20007;-76
2023/01/28 07:05:07;;;;;;;11.48;7.15;;;6.50;63.90;;;;;;6242299;23;20002;-75
2023/01/28 07:07:33;;;;;;;10.65;7.05;;;6.40;63.80;;;;;;6244471;23;20291;-79
2023/01/28 07:09:58;;;;;;;11.93;6.63;;;6.40;63.90;;;;;;6245001;23;20023;-76
2023/01/28 07:12:24;;;;;;;11.65;7.13;;;6.40;63.80;;;;;;6218440;23;20371;-80
2023/01/28 07:14:50;;;;;;;13.85;7.63;;;6.30;63.80;;;;;;6244969;23;20004;-80
2023/01/28 07:17:15;;;;;;;10.75;7.38;;;6.30;63.40;;;;;;6245374;23;20079;-80
2023/01/28 07:19:41;;;;;;;12.23;7.05;;;6.30;63.90;;;;;;6244478;23;20000;-81
2023/01/28 07:22:07;;;;;;;14.68;7.18;;;6.30;63.90;;;;;;6245175;23;20004;-76
2023/01/28 07:24:32;;;;;;;10.63;6.80;;;6.30;63.80;;;;;;6244593;23;20054;-79
2023/01/28 07:26:58;;;;;;;12.75;7.22;;;6.30;63.80;;;;;;6244469;23;20054;-79
2023/01/28 07:29:24;;;;;;;11.85;6.82;;;6.30;64.00;;;;;;6245248;23;20000;-77
2023/01/28 07:31:49;;;;;;;10.68;7.28;;;6.30;64.70;;;;;;6244476;23;20001;-76
2023/01/28 07:34:15;;;;;;;11.18;7.00;;;6.40;64.10;;;;;;6242645;23;20353;-77
2023/01/28 07:36:41;;;;;;;12.68;7.05;;;6.30;63.20;;;;;;6214529;23;20007;-76
2023/01/28 07:39:07;;;;;;;12.00;7.78;;;6.40;63.40;;;;;;6243488;23;20004;-77
2023/01/28 07:41:33;;;;;;;12.98;7.65;;;6.40;63.80;;;;;;6244864;23;20004;-77
2023/01/28 07:43:58;;;;;;;11.50;7.18;;;6.40;63.40;;;;;;6245005;23;20109;-81
2023/01/28 07:46:24;;;;;;;12.43;7.70;;;6.30;63.70;;;;;;6245268;23;20362;-80
2023/01/28 07:48:50;;;;;;;12.10;7.57;;;6.30;63.70;;;;;;6244672;23;20000;-80
2023/01/28 07:51:16;;;;;;;10.88;7.50;;;6.40;63.30;;;;;;6218128;23;20016;-80
2023/01/28 07:53:41;;;;;;;10.95;7.43;;;6.40;63.30;;;;;;6244787;23;20397;-80
2023/01/28 07:56:07;;;;;;;11.50;7.78;;;6.40;63.70;;;;;;6244142;23;20071;-80
2023/01/28 07:58:33;;;;;;;11.73;7.72;;;6.40;63.60;;;;;;6244896;23;20076;-80
2023/01/28 08:01:00;;;;;;;11.15;7.70;;;6.40;63.70;;;;;;6245340;23;20318;-80
2023/01/28 08:03:26;;;;;;;12.32;7.25;;;6.40;63.60;;;;;;6244845;23;20008;-80
2023/01/28 08:05:54;;;;;;;12.68;7.57;;;6.40;63.50;;;;;;6244467;23;20000;-79
2023/01/28 08:08:21;;;;;;;14.50;8.10;;;6.40;63.20;;;;;;6244224;23;20318;-79
2023/01/28 08:10:47;;;;;;;11.98;7.55;;;6.40;63.30;;;;;;6218244;23;20371;-79
2023/01/28 08:13:14;;;;;;;10.07;6.97;;;6.40;63.70;;;;;;6246651;23;20023;-79
2023/01/28 08:15:40;;;;;;;13.00;8.05;;;6.40;63.80;;;;;;6246648;23;20005;-79
2023/01/28 08:18:07;;;;;;;13.70;8.27;;;6.40;63.50;;;;;;6247035;23;20004;-80
2023/01/28 08:20:34;;;;;;;14.07;8.63;;;6.40;63.70;;;;;;6246817;23;20003;-80
2023/01/28 08:23:11;;;;;;;11.43;7.90;;;6.40;63.60;;;;;;6247444;23;20004;-79
2023/01/28 08:25:37;;;;;;;12.88;8.07;;;6.40;63.50;;;;;;6246803;23;20011;-79
2023/01/28 08:28:05;;;;;;;13.70;7.90;;;6.50;63.60;;;;;;6220557;23;20417;-79
2023/01/28 08:30:31;;;;;;;12.82;7.88;;;6.50;63.50;;;;;;6247412;23;20066;-78
2023/01/28 08:32:57;;;;;;;13.40;8.15;;;6.50;63.50;;;;;;6247349;23;20007;-78
2023/01/28 08:35:25;;;;;;;13.02;7.90;;;6.50;63.10;;;;;;6247100;23;20614;-78
2023/01/28 08:37:51;;;;;;;11.88;7.78;;;6.50;62.90;;;;;;6247440;23;20141;-78
2023/01/28 08:40:16;;;;;;;11.75;7.65;;;6.60;63.30;;;;;;6247495;23;20036;-79
2023/01/28 08:42:53;;;;;;;12.73;7.97;;;6.70;63.40;;;;;;6247189;23;20050;-79
2023/01/28 08:45:27;;;;;;;12.27;7.78;;;6.80;62.50;;;;;;6246481;23;20083;-80
2023/01/28 08:47:58;;;;;;;11.68;7.50;;;6.90;62.60;;;;;;6220115;23;20522;-81
2023/01/28 08:50:28;;;;;;;10.75;7.25;;;6.90;62.30;;;;;;6246557;23;20054;-82
2023/01/28 08:52:59;;;;;;;9.90;6.68;;;6.90;62.50;;;;;;6246315;23;20016;-80
2023/01/28 08:55:26;;;;;;;12.75;7.93;;;6.90;62.10;;;;;;6245635;23;20026;-80
2023/01/28 08:57:52;;;;;;;12.95;8.10;;;7.00;62.60;;;;;;6246593;23;20456;-81
2023/01/28 09:00:19;;;;;;;11.93;7.55;;;7.10;62.70;;;;;;6245291;23;20010;-81
2023/01/28 09:02:45;;;;;;;11.45;7.28;;;7.20;62.70;;;;;;6245244;23;20438;-82
2023/01/28 09:05:11;;;;;;;11.45;7.22;;;7.30;63.00;;;;;;6246158;23;20004;-81
2023/01/28 09:07:37;;;;;;;13.32;7.55;;;7.60;64.00;;;;;;6245872;23;20426;-81
2023/01/28 09:10:04;;;;;;;11.52;7.32;;;7.80;62.80;;;;;;6244647;23;20415;-80
2023/01/28 09:12:31;;;;;;;13.88;7.22;;;8.00;62.50;;;;;;6244128;23;20429;-80
2023/01/28 09:14:58;;;;;;;13.00;7.47;;;8.30;61.40;;;;;;6245335;23;20008;-80
2023/01/28 09:17:24;;;;;;;11.98;7.15;;;8.40;59.70;;;;;;6244624;23;20000;-80
2023/01/28 09:19:50;;;;;;;10.48;7.25;;;8.50;60.70;;;;;;6245851;23;20026;-80
2023/01/28 09:22:16;;;;;;;13.45;7.40;;;8.50;60.10;;;;;;6245001;23;20012;-80
2023/01/28 09:24:42;;;;;;;10.93;7.45;;;8.40;58.10;;;;;;6245302;23;20015;-79
2023/01/28 09:27:07;;;;;;;10.48;6.90;;;8.30;57.60;;;;;;6245327;23;20008;-79
2023/01/28 09:29:34;;;;;;;14.98;8.40;;;8.30;58.90;;;;;;6238520;23;20028;-79
2023/01/28 09:31:59;;;;;;;14.73;7.15;;;8.20;57.70;;;;;;6244025;23;19997;-80
2023/01/28 09:34:25;;;;;;;10.88;7.13;;;8.20;59.00;;;;;;6244601;23;20004;-90
2023/01/28 09:36:51;;;;;;;11.35;7.88;;;6.90;57.60;;;;;;6243866;23;20024;-80
2023/01/28 09:39:17;;;;;;;10.73;6.75;;;8.40;57.80;;;;;;6243945;23;20103;-80
2023/01/28 09:42:08;;;;;;;12.48;7.78;;;8.50;58.40;;;;;;6243879;23;20011;-80
2023/01/28 09:44:43;;;;;;;11.98;7.50;;;8.70;58.40;;;;;;6243490;23;20004;-80
2023/01/28 09:47:29;;;;;;;12.35;8.32;;;8.80;57.00;;;;;;6244509;23;20448;-80
2023/01/28 09:50:05;;;;;;;10.55;7.20;;;8.90;56.90;;;;;;6217027;23;20059;-81
2023/01/28 09:52:35;;;;;;;13.52;7.63;;;8.80;57.50;;;;;;6243460;23;20012;-80
2023/01/28 09:55:31;;;;;;;12.05;8.32;;;9.00;57.30;;;;;;6241856;23;20000;-80
2023/01/28 09:57:57;;;;;;;11.23;7.50;;;9.10;55.90;;;;;;6216389;23;20739;-81
2023/01/28 10:00:31;;;;;;;8.95;5.93;;;9.10;56.50;;;;;;6244577;23;20000;-81
2023/01/28 10:03:06;;;;;;;13.80;8.05;;;9.30;57.30;;;;;;6244063;23;20126;-80
2023/01/28 10:05:39;;;;;;;8.85;6.53;;;9.50;54.40;;;;;;6244402;23;20407;-81
2023/01/28 10:08:07;;;;;;;8.85;6.00;;;9.60;56.20;;;;;;6244930;23;20012;-81
2023/01/28 10:11:01;;;;;;;7.63;5.43;;;9.80;55.60;;;;;;6244472;23;20004;-81
2023/01/28 10:13:52;;;;;;;9.13;5.65;;;10.10;56.20;;;;;;6245331;23;20024;-81
2023/01/28 10:16:35;;;;;;;9.20;5.90;;;10.50;55.40;;;;;;6245023;23;20010;-81
2023/01/28 10:19:11;;;;;;;9.55;6.30;;;10.40;55.90;;;;;;6245327;23;19996;-81
2023/01/28 10:21:53;;;;;;;9.73;6.75;;;10.80;54.90;;;;;;6243821;23;20001;-81
2023/01/28 10:24:33;;;;;;;12.00;7.10;;;11.00;53.20;;;;;;6245374;23;20004;-82
2023/01/28 10:26:59;;;;;;;;;;;10.90;52.70;;;;;;6244544;23;20000;-82
2023/01/28 10:29:28;;;;;;;9.55;5.97;;;11.10;54.10;;;;;;6245303;23;19938;-82
2023/01/28 10:31:53;;;;;;;9.25;5.75;;;11.10;54.90;;;;;;6244168;23;20004;-82
2023/01/28 10:34:20;;;;;;;14.13;7.00;;;11.40;56.50;;;;;;6244305;23;19997;-83
2023/01/28 10:36:47;;;;;;;8.45;6.10;;;11.60;55.00;;;;;;6242035;23;20182;-83
2023/01/28 10:39:20;;;;;;;13.52;6.05;;;11.60;53.60;;;;;;6244231;23;20011;-84
2023/01/28 10:41:45;;;;;;;7.50;5.05;;;11.50;52.70;;;;;;6244558;23;20406;-83
2023/01/28 10:44:37;;;;;;;8.65;5.13;;;11.50;52.10;;;;;;6245214;23;20000;-84
2023/01/28 10:47:14;;;;;;;8.25;5.35;;;11.50;51.10;;;;;;6233272;23;20016;-84
2023/01/28 10:49:46;;;;;;;8.05;5.60;;;11.50;50.60;;;;;;6243983;23;19999;-83
2023/01/28 10:52:14;;;;;;;7.07;4.88;;;11.50;49.40;;;;;;6243982;23;20430;-83
2023/01/28 10:54:39;;;;;;;6.30;4.65;;;11.40;51.20;;;;;;6241333;23;20000;-83
2023/01/28 10:57:11;;;;;;;8.95;4.63;;;11.50;51.20;;;;;;6243630;23;20414;-84
2023/01/28 10:59:41;;;;;;;4.70;3.45;;;11.80;51.80;;;;;;6243337;23;20054;-83
2023/01/28 11:02:35;;;;;;;5.82;3.95;;;11.90;49.10;;;;;;6244177;23;20011;-82
2023/01/28 11:05:15;;;;;;;8.52;5.78;;;12.00;49.20;;;;;;6243905;23;20082;-82
2023/01/28 11:07:41;;;;;;;6.93;5.00;;;12.20;48.90;;;;;;6243596;23;20008;-82
2023/01/28 11:10:25;;;;;;;9.98;6.68;;;12.30;50.50;;;;;;6216204;23;20528;-82
2023/01/28 11:12:59;;;;;;;9.70;6.13;;;12.50;50.00;;;;;;6241994;23;20000;-84
2023/01/28 11:15:26;;;;;;;9.27;6.00;;;12.70;51.00;;;;;;6242890;23;20002;-83
2023/01/28 11:18:05;;;;;;;7.20;5.47;;;12.90;50.60;;;;;;6242351;23;20007;-83
2023/01/28 11:20:36;;;;;;;6.88;4.85;;;13.10;50.60;;;;;;6215382;23;20015;-83
2023/01/28 11:23:02;;;;;;;7.35;5.10;;;13.40;50.50;;;;;;6242865;23;20008;-83
2023/01/28 11:25:31;;;;;;;8.32;6.18;;;13.60;49.60;;;;;;6243017;23;20004;-83
2023/01/28 11:27:59;;;;;;;10.45;6.38;;;13.70;46.50;;;;;;6241924;23;20000;-82
2023/01/28 11:30:39;;;;;;;7.53;5.45;;;13.70;46.90;;;;;;6238809;23;20108;-83
2023/01/28 11:33:15;;;;;;;7.17;4.93;;;13.60;48.10;;;;;;6243002;23;20492;-82
2023/01/28 11:35:41;;;;;;;7.13;5.25;;;13.70;48.60;;;;;;6242627;23;20007;-75
2023/01/28 11:38:22;;;;;;;7.95;4.95;;;14.10;48.70;;;;;;6241703;23;20000;-75
2023/01/28 11:40:52;;;;;;;7.03;5.40;;;14.10;47.60;;;;;;6243607;23;20010;-76
2023/01/28 11:43:23;;;;;;;7.22;5.13;;;14.50;47.80;;;;;;6243817;23;20015;-75
2023/01/28 11:46:14;;;;;;;7.93;5.45;;;15.00;47.90;;;;;;6242687;23;20011;-76
2023/01/28 11:49:01;;;;;;;;;;;15.50;46.40;;;;;;6245765;23;20119;-76
2023/01/28 11:51:26;;;;;;;7.15;5.85;;;16.00;45.80;;;;;;6242832;23;19916;-76
2023/01/28 11:53:52;;;;;;;7.88;5.90;;;16.30;44.50;;;;;;6242747;23;20469;-76
2023/01/28 11:56:45;;;;;;;8.00;5.55;;;16.10;43.00;;;;;;6246694;23;20421;-76
2023/01/28 11:59:43;;;;;;;7.30;5.80;;;15.90;43.50;;;;;;6245523;23;20373;-80
2023/01/28 12:02:31;;;;;;;9.20;6.22;;;15.90;42.40;;;;;;6218839;23;20051;-80
2023/01/28 12:05:34;;;;;;;8.23;5.45;;;16.10;41.40;;;;;;6246017;23;19996;-80
2023/01/28 12:08:02;;;;;;;6.97;5.40;;;16.20;41.60;;;;;;6245586;23;20007;-80
2023/01/28 12:10:59;;;;;;;6.88;5.47;;;17.50;41.40;;;;;;6245905;23;20008;-81
2023/01/28 12:13:33;;;;;;;8.15;5.88;;;18.80;39.70;;;;;;6245772;23;20007;-82
2023/01/28 12:16:08;;;;;;;7.47;5.85;;;19.90;38.20;;;;;;6246384;23;20086;-82
2023/01/28 12:19:02;;;;;;;9.90;6.47;;;20.40;36.80;;;;;;6244716;23;20414;-81
2023/01/28 12:21:49;;;;;;;7.60;5.78;;;21.20;36.20;;;;;;6245348;23;20000;-81
2023/01/28 12:24:21;;;;;;;8.27;6.07;;;21.70;31.80;;;;;;6245507;23;20373;-82
2023/01/28 12:27:29;;;;;;;9.02;5.95;;;22.00;33.30;;;;;;6246281;23;19997;-80
2023/01/28 12:29:58;;;;;;;6.97;5.40;;;22.40;33.50;;;;;;6244735;23;20000;-77
2023/01/28 12:32:30;;;;;;;8.43;6.13;;;22.70;31.90;;;;;;6218773;23;20082;-76
2023/01/28 12:35:01;;;;;;;7.75;5.90;;;22.80;32.50;;;;;;6219326;23;20099;-77
2023/01/28 12:38:01;;;;;;;8.18;6.22;;;22.80;31.40;;;;;;6243717;23;20040;-77
2023/01/28 12:40:55;;;;;;;10.43;6.35;;;22.80;32.30;;;;;;6205509;23;20286;-77
2023/01/28 12:43:32;;;;;;;7.15;6.22;;;22.90;31.80;;;;;;6245414;23;20340;-78
2023/01/28 12:46:05;;;;;;;7.30;5.90;;;22.80;31.50;;;;;;6245380;23;20011;-77
2023/01/28 12:49:05;;;;;;;6.40;5.38;;;22.10;31.10;;;;;;6244604;23;20000;-76
2023/01/28 12:51:39;;;;;;;;;;;22.00;31.70;;;;;;6233771;23;20346;-76
2023/01/28 12:54:20;;;;;;;6.72;5.18;;;21.60;31.90;;;;;;6244336;23;20330;-77
2023/01/28 12:56:58;;;;;;;7.00;6.13;;;21.40;33.00;;;;;;6244800;23;20453;-76
2023/01/28 12:59:48;;;;;;;6.70;5.47;;;21.10;30.40;;;;;;6237310;23;20043;-77
2023/01/28 13:02:28;;;;;;;7.00;5.40;;;20.70;32.20;;;;;;6244321;23;20004;-77
2023/01/28 13:05:03;;;;;;;;;;;20.70;33.30;;;;;;6245679;23;20022;-77
2023/01/28 13:07:54;;;;;;;9.20;5.85;;;20.80;33.20;;;;;;6218765;23;20246;-77
2023/01/28 13:10:27;;;;;;;7.18;5.72;;;21.00;32.30;;;;;;6245151;23;20000;-77
2023/01/28 13:12:54;;;;;;;6.72;5.70;;;;;;;;;;6244281;23;20000;-77
2023/01/28 13:15:23;;;;;;;8.10;5.25;;;21.40;31.10;;;;;;6243126;23;20023;-77
2023/01/28 13:18:04;;;;;;;9.83;6.80;;;21.40;32.80;;;;;;6243082;23;20007;-77
2023/01/28 13:20:46;;;;;;;7.25;5.75;;;21.60;32.00;;;;;;6243549;23;20031;-77
2023/01/28 13:23:30;;;;;;;6.70;5.45;;;21.70;31.40;;;;;;6244216;23;20744;-80
2023/01/28 13:26:19;;;;;;;6.82;5.55;;;21.80;30.60;;;;;;6218053;23;20013;-80
2023/01/28 13:28:46;;;;;;;6.15;5.38;;;21.80;30.00;;;;;;6243628;23;20012;-80
2023/01/28 13:31:18;;;;;;;7.38;5.63;;;21.70;30.40;;;;;;6243898;23;20441;-80
2023/01/28 13:33:52;;;;;;;6.68;5.60;;;21.20;30.60;;;;;;6244257;23;20004;-80
2023/01/28 13:36:37;;;;;;;7.88;5.63;;;20.50;31.10;;;;;;6244379;23;19996;-80
2023/01/28 13:39:05;;;;;;;6.45;5.55;;;19.70;31.80;;;;;;6244254;23;20508;-80